Time,TemperatureF,DewpointF,PressureIn,WindDirection,WindDirectionDegrees,WindSpeedMPH,WindSpeedGustMPH,Humidity,HourlyPrecipIn,Conditions,Clouds,dailyrainin,SoftwareType,DateUTC
2013-06-02 00:13:00,80.0,41.0,30.04,ESE,121,9.0,14.0,25,0.00,,,0.00,weatherlink.com 1.10,2013-06-02 06:13:00,
2013-06-02 00:28:00,79.2,41.0,30.04,SSE,152,4.0,9.0,26,0.00,,,0.00,weatherlink.com 1.10,2013-06-02 06:28:00,
2013-06-02 00:58:00,77.8,41.0,30.04,SSE,164,5.0,11.0,27,0.00,,,0.00,weatherlink.com 1.10,2013-06-02 06:58:00,
2013-06-02 01:14:00,77.2,42.0,30.04,SSE,160,7.0,11.0,28,0.00,,,0.00,weatherlink.com 1.10,2013-06-02 07:14:00,
2013-06-02 01:29:00,76.7,42.0,30.04,SSE,150,6.0,9.0,29,0.00,,,0.00,weatherlink.com 1.10,2013-06-02 07:29:00,
2013-06-02 01:44:00,76.3,43.0,30.04,SE,146,6.0,11.0,30,0.00,,,0.00,weatherlink.com 1.10,2013-06-02 07:44:00,
2013-06-02 02:00:00,75.8,43.0,30.04,SSE,159,4.0,8.0,31,0.00,,,0.00,weatherlink.com 1.10,2013-06-02 08:00:00,
2013-06-02 02:15:00,75.3,43.0,30.04,South,188,1.0,6.0,32,0.00,,,0.00,weatherlink.com 1.10,2013-06-02 08:15:00,
2013-06-02 02:30:00,75.0,44.0,30.04,South,180,4.0,7.0,33,0.00,,,0.00,weatherlink.com 1.10,2013-06-02 08:30:00,
2013-06-02 02:45:00,74.9,44.0,30.04,South,173,5.0,10.0,33,0.00,,,0.00,weatherlink.com 1.10,2013-06-02 08:45:00,
2013-06-02 03:01:00,74.5,44.0,30.04,SSE,161,5.0,14.0,34,0.00,,,0.00,weatherlink.com 1.10,2013-06-02 09:01:00,
2013-06-02 03:16:00,73.7,45.0,30.04,SE,145,1.0,3.0,36,0.00,,,0.00,weatherlink.com 1.10,2013-06-02 09:16:00,
2013-06-02 03:31:00,72.9,46.0,30.05,SE,145,2.0,2.0,39,0.00,,,0.00,weatherlink.com 1.10,2013-06-02 09:31:00,
2013-06-02 03:46:00,71.7,44.0,30.05,East,80,1.0,4.0,37,0.00,,,0.00,weatherlink.com 1.10,2013-06-02 09:46:00,
2013-06-02 04:01:00,71.6,43.0,30.05,ESE,111,0.0,8.0,36,0.00,,,0.00,weatherlink.com 1.10,2013-06-02 10:01:00,
2013-06-02 04:17:00,71.0,43.0,30.05,ESE,106,1.0,3.0,37,0.00,,,0.00,weatherlink.com 1.10,2013-06-02 10:17:00,
2013-06-02 04:32:00,70.6,43.0,30.05,SE,134,2.0,4.0,37,0.00,,,0.00,weatherlink.com 1.10,2013-06-02 10:32:00,
2013-06-02 04:47:00,70.2,43.0,30.05,ESE,106,1.0,4.0,38,0.00,,,0.00,weatherlink.com 1.10,2013-06-02 10:47:00,
2013-06-02 05:02:00,70.0,43.0,30.06,SE,126,2.0,5.0,38,0.00,,,0.00,weatherlink.com 1.10,2013-06-02 11:02:00,
2013-06-02 05:17:00,69.8,42.0,30.06,East,101,3.0,5.0,37,0.00,,,0.00,weatherlink.com 1.10,2013-06-02 11:17:00,
2013-06-02 05:32:00,69.5,42.0,30.06,ESE,118,0.0,5.0,37,0.00,,,0.00,weatherlink.com 1.10,2013-06-02 11:32:00,
2013-06-02 05:48:00,69.0,42.0,30.07,ESE,118,0.0,2.0,37,0.00,,,0.00,weatherlink.com 1.10,2013-06-02 11:48:00,
2013-06-02 06:03:00,68.8,41.0,30.07,East,80,2.0,7.0,37,0.00,,,0.00,weatherlink.com 1.10,2013-06-02 12:03:00,
2013-06-02 06:18:00,69.5,42.0,30.07,East,83,0.0,6.0,37,0.00,,,0.00,weatherlink.com 1.10,2013-06-02 12:18:00,
2013-06-02 06:33:00,70.2,42.0,30.08,East,82,3.0,8.0,36,0.00,,,0.00,weatherlink.com 1.10,2013-06-02 12:33:00,
2013-06-02 06:49:00,70.4,42.0,30.08,East,92,3.0,7.0,36,0.00,,,0.00,weatherlink.com 1.10,2013-06-02 12:49:00,
2013-06-02 07:04:00,72.0,44.0,30.09,East,90,2.0,5.0,36,0.00,,,0.00,weatherlink.com 1.10,2013-06-02 13:04:00,
2013-06-02 07:19:00,73.0,43.0,30.09,East,82,2.0,5.0,34,0.00,,,0.00,weatherlink.com 1.10,2013-06-02 13:19:00,
2013-06-02 07:34:00,74.5,44.0,30.09,ESE,104,0.0,4.0,34,0.00,,,0.00,weatherlink.com 1.10,2013-06-02 13:34:00,
2013-06-02 07:49:00,74.8,45.0,30.10,ESE,123,3.0,3.0,34,0.00,,,0.00,weatherlink.com 1.10,2013-06-02 13:49:00,
2013-06-02 08:05:00,76.1,45.0,30.10,ESE,117,2.0,7.0,33,0.00,,,0.00,weatherlink.com 1.10,2013-06-02 14:05:00,
2013-06-02 08:20:00,77.3,45.0,30.09,ESE,105,3.0,7.0,32,0.00,,,0.00,weatherlink.com 1.10,2013-06-02 14:20:00,
2013-06-02 08:35:00,78.5,46.0,30.09,East,90,5.0,6.0,32,0.00,,,0.00,weatherlink.com 1.10,2013-06-02 14:35:00,
2013-06-02 08:50:00,78.5,46.0,30.09,SE,130,2.0,7.0,32,0.00,,,0.00,weatherlink.com 1.10,2013-06-02 14:50:00,
2013-06-02 09:05:00,79.3,47.0,30.09,ESE,117,4.0,9.0,32,0.00,,,0.00,weatherlink.com 1.10,2013-06-02 15:05:00,
2013-06-02 09:21:00,81.4,49.0,30.09,SSE,159,1.0,13.0,32,0.00,,,0.00,weatherlink.com 1.10,2013-06-02 15:21:00,
2013-06-02 09:36:00,82.5,50.0,30.09,SSE,154,6.0,13.0,32,0.00,,,0.00,weatherlink.com 1.10,2013-06-02 15:36:00,
2013-06-02 09:51:00,82.7,49.0,30.08,ESE,118,5.0,14.0,31,0.00,,,0.00,weatherlink.com 1.10,2013-06-02 15:51:00,
2013-06-02 10:06:00,84.0,50.0,30.08,East,84,2.0,13.0,31,0.00,,,0.00,weatherlink.com 1.10,2013-06-02 16:06:00,
2013-06-02 10:21:00,86.0,51.0,30.08,SE,138,8.0,12.0,30,0.00,,,0.00,weatherlink.com 1.10,2013-06-02 16:21:00,
2013-06-02 10:37:00,85.5,51.0,30.07,SSE,150,7.0,17.0,31,0.00,,,0.00,weatherlink.com 1.10,2013-06-02 16:37:00,
2013-06-02 10:52:00,85.2,51.0,30.07,East,84,2.0,17.0,31,0.00,,,0.00,weatherlink.com 1.10,2013-06-02 16:52:00,
2013-06-02 11:07:00,86.6,51.0,30.07,South,169,4.0,17.0,30,0.00,,,0.00,weatherlink.com 1.10,2013-06-02 17:07:00,
2013-06-02 11:22:00,87.7,51.0,30.06,SE,138,7.0,12.0,28,0.00,,,0.00,weatherlink.com 1.10,2013-06-02 17:22:00,
2013-06-02 11:37:00,88.5,50.0,30.06,East,96,8.0,13.0,27,0.00,,,0.00,weatherlink.com 1.10,2013-06-02 17:37:00,
2013-06-02 11:53:00,89.7,50.0,30.05,SE,130,6.0,16.0,26,0.00,,,0.00,weatherlink.com 1.10,2013-06-02 17:53:00,
2013-06-02 12:08:00,91.1,50.0,30.04,ESE,103,5.0,12.0,25,0.00,,,0.00,weatherlink.com 1.10,2013-06-02 18:08:00,
2013-06-02 12:23:00,91.8,52.0,30.03,SSE,155,7.0,15.0,26,0.00,,,0.00,weatherlink.com 1.10,2013-06-02 18:23:00,
2013-06-02 12:38:00,92.9,53.0,30.03,East,94,7.0,10.0,26,0.00,,,0.00,weatherlink.com 1.10,2013-06-02 18:38:00,
2013-06-02 12:53:00,93.5,52.0,30.02,ESE,116,1.0,21.0,25,0.00,,,0.00,weatherlink.com 1.10,2013-06-02 18:53:00,
2013-06-02 13:09:00,94.5,52.0,30.01,ESE,121,12.0,17.0,24,0.00,,,0.00,weatherlink.com 1.10,2013-06-02 19:09:00,
2013-06-02 13:24:00,95.1,53.0,30.00,SE,136,4.0,16.0,24,0.00,,,0.00,weatherlink.com 1.10,2013-06-02 19:24:00,
2013-06-02 13:39:00,95.5,52.0,29.99,SSE,163,6.0,18.0,23,0.00,,,0.00,weatherlink.com 1.10,2013-06-02 19:39:00,
2013-06-02 13:54:00,97.1,52.0,29.98,East,94,7.0,14.0,22,0.00,,,0.00,weatherlink.com 1.10,2013-06-02 19:54:00,
2013-06-02 14:10:00,98.3,53.0,29.97,SE,130,9.0,16.0,22,0.00,,,0.00,weatherlink.com 1.10,2013-06-02 20:10:00,
2013-06-02 14:25:00,98.5,53.0,29.95,East,84,11.0,21.0,22,0.00,,,0.00,weatherlink.com 1.10,2013-06-02 20:25:00,
2013-06-02 14:40:00,98.6,52.0,29.95,SSE,150,7.0,18.0,21,0.00,,,0.00,weatherlink.com 1.10,2013-06-02 20:40:00,
2013-06-02 14:55:00,98.8,51.0,29.94,ESE,111,5.0,15.0,20,0.00,,,0.00,weatherlink.com 1.10,2013-06-02 20:55:00,
2013-06-02 15:11:00,99.7,51.0,29.93,East,98,3.0,17.0,20,0.00,,,0.00,weatherlink.com 1.10,2013-06-02 21:11:00,
2013-06-02 15:26:00,100.2,51.0,29.92,SE,136,7.0,20.0,19,0.00,,,0.00,weatherlink.com 1.10,2013-06-02 21:26:00,
2013-06-02 15:41:00,99.9,50.0,29.91,East,97,18.0,18.0,19,0.00,,,0.00,weatherlink.com 1.10,2013-06-02 21:41:00,
2013-06-02 15:56:00,100.2,51.0,29.89,SE,133,13.0,14.0,19,0.00,,,0.00,weatherlink.com 1.10,2013-06-02 21:56:00,
2013-06-02 16:11:00,99.1,50.0,29.88,SE,138,4.0,14.0,19,0.00,,,0.00,weatherlink.com 1.10,2013-06-02 22:11:00,
2013-06-02 16:27:00,100.3,51.0,29.87,SSW,192,4.0,14.0,19,0.00,,,0.00,weatherlink.com 1.10,2013-06-02 22:27:00,
2013-06-02 16:42:00,97.8,47.0,29.86,SSE,167,4.0,17.0,18,0.00,,,0.00,weatherlink.com 1.10,2013-06-02 22:42:00,
2013-06-02 16:57:00,96.0,48.0,29.86,SSW,198,4.0,12.0,20,0.00,,,0.00,weatherlink.com 1.10,2013-06-02 22:57:00,
2013-06-02 17:12:00,94.7,49.0,29.85,South,169,6.0,10.0,21,0.00,,,0.00,weatherlink.com 1.10,2013-06-02 23:12:00,
2013-06-02 17:28:00,94.1,48.0,29.84,South,173,3.0,8.0,21,0.00,,,0.00,weatherlink.com 1.10,2013-06-02 23:28:00,
2013-06-02 17:43:00,94.6,49.0,29.85,South,169,4.0,9.0,21,0.00,,,0.00,weatherlink.com 1.10,2013-06-02 23:43:00,
2013-06-02 17:58:00,93.5,49.0,29.85,East,93,3.0,10.0,22,0.00,,,0.00,weatherlink.com 1.10,2013-06-02 23:58:00,
2013-06-02 18:13:00,89.5,55.0,29.88,South,184,22.0,30.0,31,0.00,,,0.00,weatherlink.com 1.10,2013-06-03 00:13:00,
2013-06-02 18:28:00,83.2,54.0,29.88,SSE,165,16.0,26.0,37,0.00,,,0.00,weatherlink.com 1.10,2013-06-03 00:28:00,
2013-06-02 18:43:00,81.2,55.0,29.91,South,187,14.0,25.0,41,0.00,,,0.00,weatherlink.com 1.10,2013-06-03 00:43:00,
2013-06-02 18:59:00,78.9,56.0,29.92,SE,140,7.0,25.0,45,0.00,,,0.00,weatherlink.com 1.10,2013-06-03 00:59:00,
2013-06-02 19:14:00,76.2,58.0,29.91,South,182,5.0,16.0,53,0.00,,,0.00,weatherlink.com 1.10,2013-06-03 01:14:00,
2013-06-02 19:29:00,75.8,56.0,29.90,SSW,207,7.0,14.0,51,0.00,,,0.00,weatherlink.com 1.10,2013-06-03 01:29:00,
2013-06-02 19:44:00,76.4,53.0,29.89,South,171,7.0,12.0,45,0.00,,,0.00,weatherlink.com 1.10,2013-06-03 01:44:00,
2013-06-02 19:59:00,77.1,52.0,29.89,South,173,6.0,11.0,42,0.00,,,0.00,weatherlink.com 1.10,2013-06-03 01:59:00,
2013-06-02 20:15:00,77.3,51.0,29.89,SSE,163,15.0,17.0,40,0.00,,,0.00,weatherlink.com 1.10,2013-06-03 02:15:00,
2013-06-02 20:30:00,77.0,51.0,29.91,South,186,10.0,13.0,41,0.00,,,0.00,weatherlink.com 1.10,2013-06-03 02:30:00,
2013-06-02 20:45:00,76.5,51.0,29.92,SSE,158,7.0,12.0,41,0.00,,,0.00,weatherlink.com 1.10,2013-06-03 02:45:00,
2013-06-02 21:00:00,76.1,52.0,29.92,South,170,7.0,17.0,43,0.00,,,0.00,weatherlink.com 1.10,2013-06-03 03:00:00,
2013-06-02 21:16:00,75.4,53.0,29.94,South,179,9.0,17.0,45,0.00,,,0.00,weatherlink.com 1.10,2013-06-03 03:16:00,
2013-06-02 21:31:00,74.8,53.0,29.96,SSW,203,7.0,19.0,46,0.00,,,0.00,weatherlink.com 1.10,2013-06-03 03:31:00,
2013-06-02 22:01:00,73.3,52.0,29.99,South,174,10.0,21.0,47,0.00,,,0.00,weatherlink.com 1.10,2013-06-03 04:01:00,
2013-06-02 22:17:00,73.0,52.0,30.00,South,180,11.0,17.0,48,0.00,,,0.00,weatherlink.com 1.10,2013-06-03 04:17:00,
2013-06-02 22:32:00,73.0,52.0,30.01,South,175,12.0,18.0,47,0.00,,,0.00,weatherlink.com 1.10,2013-06-03 04:32:00,
2013-06-02 22:47:00,73.1,50.0,30.02,South,185,8.0,20.0,45,0.00,,,0.00,weatherlink.com 1.10,2013-06-03 04:47:00,
2013-06-02 23:02:00,72.9,51.0,30.01,South,180,9.0,22.0,47,0.00,,,0.00,weatherlink.com 1.10,2013-06-03 05:02:00,
2013-06-02 23:17:00,72.5,51.0,30.01,South,190,9.0,19.0,47,0.00,,,0.00,weatherlink.com 1.10,2013-06-03 05:17:00,
2013-06-02 23:33:00,72.3,50.0,30.01,South,180,5.0,17.0,46,0.00,,,0.00,weatherlink.com 1.10,2013-06-03 05:33:00,
2013-06-02 23:48:00,72.0,51.0,30.01,South,184,10.0,28.0,47,0.00,,,0.00,weatherlink.com 1.10,2013-06-03 05:48:00,